Time;durP1;ratioP1;P1;durP2;ratioP2;P2;SDS_P1;SDS_P2;PMS_P1;PMS_P2;Temp;Humidity;BMP_temperature;BMP_pressure;BME280_temperature;BME280_humidity;BME280_pressure;Samples;Min_cycle;Max_cycle;Signal;HPM_P1;HPM_P2
2021/01/07 00:01:53;;;;;;;24.60;18.70;;;4.00;99.90;;;;;;4938659;28;20239;-85
2021/01/07 00:04:24;;;;;;;24.40;17.63;;;4.00;99.90;;;;;;4970422;23;20970;-85
2021/01/07 00:07:12;;;;;;;25.40;18.40;;;4.10;99.90;;;;;;4999407;23;20575;-85
2021/01/07 00:21:51;;;;;;;22.43;15.97;;;4.00;99.90;;;;;;5132614;23;21343;-84
2021/01/07 00:24:43;;;;;;;23.27;17.20;;;4.00;99.90;;;;;;5077364;23;20450;-85
2021/01/07 00:27:27;;;;;;;20.13;15.67;;;3.90;99.90;;;;;;4990250;23;20479;-84
2021/01/07 00:32:22;;;;;;;26.67;17.67;;;4.00;99.90;;;;;;5076798;23;20506;-84
2021/01/07 00:57:16;;;;;;;27.27;17.90;;;3.60;99.90;;;;;;4942119;29;20470;-85
2021/01/07 01:00:17;;;;;;;24.13;17.17;;;3.60;99.90;;;;;;4940904;29;20482;-84
2021/01/07 01:27:08;;;;;;;21.73;14.70;;;3.50;99.90;;;;;;4942380;29;20446;-85
2021/01/07 01:29:49;;;;;;;24.37;14.83;;;3.70;99.90;;;;;;4943148;29;20508;-86
2021/01/07 01:32:51;;;;;;;20.77;14.80;;;3.60;99.90;;;;;;5084086;23;20492;-84
2021/01/07 01:52:51;;;;;;;20.83;13.27;;;3.70;99.90;;;;;;5016015;23;20523;-84
2021/01/07 01:55:21;;;;;;;17.00;12.80;;;3.60;99.90;;;;;;5067470;23;20482;-85
2021/01/07 01:58:22;;;;;;;17.33;13.13;;;3.70;99.90;;;;;;5156432;23;20457;-85
2021/01/07 02:00:57;;;;;;;18.07;12.10;;;3.70;99.90;;;;;;4960213;29;20444;-85
2021/01/07 02:07:06;;;;;;;19.63;13.37;;;3.70;99.90;;;;;;4970648;23;20490;-86
2021/01/07 02:10:05;;;;;;;20.17;12.83;;;3.60;99.90;;;;;;5019651;23;20486;-85
2021/01/07 02:18:40;;;;;;;19.83;11.73;;;3.70;99.90;;;;;;5204867;23;20472;-84
2021/01/07 02:24:14;;;;;;;20.50;14.87;;;3.60;99.90;;;;;;5026741;23;20473;-85
2021/01/07 02:42:40;;;;;;;21.03;14.93;;;3.40;99.90;;;;;;5109917;22;20263;-85
2021/01/07 02:50:49;;;;;;;19.43;14.20;;;3.50;99.90;;;;;;5444701;22;21504;-84
2021/01/07 03:05:22;;;;;;;21.73;14.70;;;3.40;99.90;;;;;;5431639;22;20538;-84
2021/01/07 03:07:49;;;;;;;19.17;13.13;;;3.50;99.90;;;;;;5093100;28;20493;-85
2021/01/07 03:10:21;;;;;;;18.43;13.50;;;3.20;99.90;;;;;;5153672;23;20455;-84
2021/01/07 03:18:54;;;;;;;16.93;12.13;;;3.20;99.90;;;;;;5112815;28;20469;-85
2021/01/07 03:21:48;;;;;;;17.37;11.87;;;3.40;99.90;;;;;;5121848;23;20481;-85
2021/01/07 03:27:10;;;;;;;16.07;10.80;;;3.40;99.90;;;;;;5134601;22;20555;-84
2021/01/07 03:35:38;;;;;;;14.77;10.90;;;3.20;99.90;;;;;;5073326;28;20440;-85
2021/01/07 03:38:06;;;;;;;16.20;12.27;;;3.20;99.90;;;;;;5081393;23;20503;-85
2021/01/07 03:49:38;;;;;;;12.30;10.33;;;3.30;99.90;;;;;;5159078;23;20466;-83
2021/01/07 03:52:22;;;;;;;12.47;9.37;;;3.40;99.90;;;;;;4979408;28;20214;-85
2021/01/07 03:55:03;;;;;;;13.37;9.93;;;3.30;99.90;;;;;;5044163;23;20491;-84
2021/01/07 04:00:52;;;;;;;12.93;8.50;;;3.40;99.90;;;;;;5191106;23;20544;-85
2021/01/07 04:03:25;;;;;;;12.03;9.13;;;3.20;99.90;;;;;;5106579;23;20528;-85
2021/01/07 04:06:06;;;;;;;13.77;9.00;;;3.20;99.90;;;;;;5099030;28;20462;-85
2021/01/07 04:14:34;;;;;;;15.93;13.80;;;3.10;99.90;;;;;;5125869;22;20452;-84
2021/01/07 04:23:00;;;;;;;12.93;9.67;;;3.10;99.90;;;;;;5176044;22;20496;-85
2021/01/07 04:31:10;;;;;;;17.63;10.10;;;2.80;99.90;;;;;;5080399;22;20479;-84
2021/01/07 04:33:44;;;;;;;15.07;9.90;;;2.90;99.90;;;;;;5058606;28;20435;-85
2021/01/07 04:36:15;;;;;;;16.60;10.63;;;2.80;99.90;;;;;;5058462;28;20451;-85
2021/01/07 04:42:13;;;;;;;15.47;11.10;;;2.80;99.90;;;;;;5075808;23;20488;-85
2021/01/07 04:57:35;;;;;;;21.77;13.23;;;2.90;99.90;;;;;;5192170;23;20468;-85
2021/01/07 05:00:28;;;;;;;22.93;13.13;;;2.90;99.90;;;;;;5034796;28;20445;-85
2021/01/07 05:06:38;;;;;;;20.00;12.70;;;3.20;99.90;;;;;;5083403;23;20474;-84
2021/01/07 05:09:25;;;;;;;22.53;13.07;;;3.20;99.90;;;;;;5123559;22;20479;-85
2021/01/07 05:12:16;;;;;;;21.93;13.90;;;3.00;99.90;;;;;;5078729;28;20458;-85
2021/01/07 05:14:50;;;;;;;20.13;14.23;;;3.00;99.90;;;;;;5062489;28;20451;-85
2021/01/07 05:17:21;;;;;;;19.30;14.07;;;3.00;99.90;;;;;;5182964;22;20490;-85
2021/01/07 05:33:39;;;;;;;18.13;13.17;;;3.00;99.90;;;;;;5115002;22;20570;-85
2021/01/07 05:36:23;;;;;;;20.93;13.30;;;3.20;99.90;;;;;;5098097;28;20197;-85
2021/01/07 05:38:54;;;;;;;18.43;13.77;;;3.20;99.90;;;;;;5097888;28;20550;-85
2021/01/07 05:44:17;;;;;;;23.80;13.23;;;3.20;99.90;;;;;;5091477;22;20957;-85
2021/01/07 05:49:38;;;;;;;18.97;13.13;;;3.10;99.90;;;;;;5102319;23;20494;-84
2021/01/07 05:52:12;;;;;;;20.13;13.27;;;3.10;99.90;;;;;;5098390;28;20212;-84
2021/01/07 05:58:02;;;;;;;19.40;12.97;;;3.20;99.90;;;;;;5097480;28;20475;-85
2021/01/07 06:00:45;;;;;;;22.47;13.80;;;3.10;99.90;;;;;;5115824;22;20483;-85
2021/01/07 06:15:55;;;;;;;12.67;10.07;;;3.40;99.90;;;;;;5203227;22;20485;-84
2021/01/07 06:21:27;;;;;;;13.70;9.60;;;3.50;99.90;;;;;;5041580;23;20509;-85
2021/01/07 06:24:29;;;;;;;18.63;11.53;;;3.40;99.90;;;;;;5385316;23;20761;-85
2021/01/07 06:27:22;;;;;;;17.27;11.67;;;3.40;99.90;;;;;;5077009;22;20437;-84
2021/01/07 06:33:39;;;;;;;13.33;10.40;;;3.30;99.90;;;;;;5055909;28;20500;-83
2021/01/07 07:22:17;;;;;;;14.40;9.70;;;2.90;99.90;;;;;;5070570;23;20494;-84
2021/01/07 07:30:45;;;;;;;15.43;10.67;;;3.20;99.90;;;;;;5092791;23;20489;-85
2021/01/07 07:33:39;;;;;;;15.77;9.87;;;3.20;99.90;;;;;;5086257;23;20502;-84
2021/01/07 07:39:21;;;;;;;12.87;9.30;;;3.00;99.90;;;;;;5232056;22;20492;-84
2021/01/07 08:06:36;;;;;;;13.37;8.83;;;3.30;99.90;;;;;;5154476;23;20496;-86
2021/01/07 08:09:21;;;;;;;12.90;8.80;;;3.40;99.90;;;;;;5035845;28;20449;-86
2021/01/07 08:11:51;;;;;;;15.73;8.63;;;3.50;99.90;;;;;;5034482;28;20445;-85
2021/01/07 08:14:24;;;;;;;9.87;7.90;;;3.30;99.90;;;;;;5033420;28;20444;-85
2021/01/07 08:16:55;;;;;;;11.80;8.20;;;3.20;99.90;;;;;;5031398;28;20477;-85
2021/01/07 08:19:34;;;;;;;10.37;8.00;;;3.20;99.90;;;;;;5031526;28;20576;-85
2021/01/07 08:27:24;;;;;;;10.40;6.90;;;3.30;99.90;;;;;;5097896;22;20498;-85
2021/01/07 08:33:16;;;;;;;8.30;5.67;;;3.40;99.90;;;;;;5058148;28;20491;-85
2021/01/07 08:36:08;;;;;;;16.73;6.70;;;3.40;99.90;;;;;;5056347;28;20453;-85
2021/01/07 08:47:36;;;;;;;11.57;8.20;;;3.60;99.90;;;;;;5360841;22;21620;-84
2021/01/07 08:50:25;;;;;;;9.77;6.17;;;3.50;99.90;;;;;;5066178;23;20484;-85
2021/01/07 08:56:18;;;;;;;9.07;6.03;;;3.30;99.90;;;;;;1766536;22;20774;-84
2021/01/07 09:14:36;;;;;;;8.00;6.20;;;3.70;99.90;;;;;;5141644;23;20468;-85
2021/01/07 09:26:25;;;;;;;10.07;6.33;;;3.70;99.90;;;;;;3571930;22;20688;-84
2021/01/07 09:29:22;;;;;;;10.77;5.77;;;3.80;99.90;;;;;;5088940;22;20509;-85
2021/01/07 09:32:11;;;;;;;7.07;5.47;;;3.90;99.90;;;;;;5081453;28;20460;-85
2021/01/07 09:34:41;;;;;;;9.47;5.63;;;3.80;99.90;;;;;;5075337;23;20496;-85
2021/01/07 09:37:53;;;;;;;8.70;5.30;;;4.10;99.90;;;;;;5164154;23;20519;-85
2021/01/07 09:40:26;;;;;;;9.73;4.87;;;4.20;99.90;;;;;;5118114;23;20519;-85
2021/01/07 09:42:58;;;;;;;10.37;5.37;;;3.90;99.90;;;;;;5057103;28;20512;-85
2021/01/07 09:48:52;;;;;;;8.43;4.70;;;3.90;99.90;;;;;;5095384;22;20511;-85
2021/01/07 09:51:25;;;;;;;7.40;4.70;;;3.80;99.90;;;;;;5034743;28;20450;-85
2021/01/07 09:54:28;;;;;;;8.93;4.70;;;3.90;99.90;;;;;;5035810;28;20408;-85
2021/01/07 09:57:26;;;;;;;7.40;4.60;;;4.00;99.90;;;;;;5020206;28;20469;-85
2021/01/07 10:02:36;;;;;;;29.57;7.80;;;3.90;99.90;;;;;;5161565;22;20491;-85
2021/01/07 10:08:10;;;;;;;66.75;13.40;;;4.00;99.90;;;;;;5078205;23;20439;-85
2021/01/07 10:19:25;;;;;;;15.33;5.57;;;4.00;99.90;;;;;;5075547;22;20492;-85
2021/01/07 10:22:20;;;;;;;10.47;6.10;;;4.10;99.90;;;;;;5054361;28;20467;-83
2021/01/07 10:37:08;;;;;;;9.93;5.43;;;4.50;99.90;;;;;;5041513;28;20460;-84
2021/01/07 10:39:44;;;;;;;8.80;4.43;;;4.60;99.90;;;;;;5053598;28;20485;-84
2021/01/07 10:42:30;;;;;;;6.87;4.57;;;4.70;99.90;;;;;;5054205;28;20504;-84
2021/01/07 10:45:18;;;;;;;12.10;5.30;;;4.70;99.90;;;;;;5054069;28;20456;-84
2021/01/07 10:47:47;;;;;;;9.97;4.30;;;4.70;99.90;;;;;;5051422;28;20484;-84
2021/01/07 10:50:17;;;;;;;10.97;5.37;;;4.70;99.90;;;;;;5050512;28;20535;-84
2021/01/07 10:53:15;;;;;;;5.60;3.83;;;4.70;99.90;;;;;;5052925;28;20448;-84
2021/01/07 10:59:29;;;;;;;9.70;4.30;;;4.80;99.90;;;;;;5037292;28;20488;-84
2021/01/07 11:02:29;;;;;;;7.47;4.50;;;4.90;99.90;;;;;;5080498;22;20507;-85
2021/01/07 11:05:18;;;;;;;7.37;3.67;;;5.20;99.90;;;;;;5071167;23;20518;-84
2021/01/07 11:07:55;;;;;;;10.47;3.80;;;5.10;99.90;;;;;;5054659;28;20468;-83
2021/01/07 11:18:58;;;;;;;7.47;3.07;;;5.30;99.90;;;;;;5072982;22;20488;-84
2021/01/07 11:27:24;;;;;;;6.30;3.17;;;5.20;99.90;;;;;;5053990;28;20465;-84
2021/01/07 11:32:54;;;;;;;8.07;4.33;;;5.10;99.90;;;;;;5185625;22;1275978;-82
2021/01/07 11:35:32;;;;;;;7.93;3.13;;;5.10;99.90;;;;;;5150291;28;20222;-85
2021/01/07 11:38:34;;;;;;;6.13;3.50;;;5.20;99.90;;;;;;5152656;27;20466;-86
2021/01/07 11:51:31;;;;;;;10.87;3.20;;;4.90;99.90;;;;;;5089534;28;20496;-86
2021/01/07 11:54:09;;;;;;;4.80;3.20;;;4.90;99.90;;;;;;5160492;22;20492;-83
2021/01/07 11:56:44;;;;;;;9.37;3.27;;;5.00;99.90;;;;;;5131649;28;20433;-82
2021/01/07 12:01:59;;;;;;;8.07;3.43;;;5.00;99.90;;;;;;5131523;28;20431;-86
2021/01/07 12:04:28;;;;;;;11.07;3.37;;;5.00;99.90;;;;;;5123275;28;20945;-86
2021/01/07 12:10:20;;;;;;;8.93;3.20;;;5.00;99.90;;;;;;5110222;28;20529;-85
2021/01/07 12:12:56;;;;;;;9.70;3.10;;;5.00;99.90;;;;;;5108962;28;20468;-85
2021/01/07 12:15:23;;;;;;;6.33;2.87;;;5.20;99.90;;;;;;5117741;22;20481;-85
2021/01/07 12:17:51;;;;;;;5.60;3.50;;;5.20;99.90;;;;;;5128286;28;20468;-85
2021/01/07 12:20:18;;;;;;;7.77;3.53;;;5.30;99.90;;;;;;5129685;28;20197;-85
2021/01/07 12:22:50;;;;;;;3.07;2.67;;;5.30;99.90;;;;;;5129659;28;20793;-85
2021/01/07 12:25:18;;;;;;;6.03;2.83;;;5.30;99.90;;;;;;5128034;28;20460;-86
2021/01/07 12:27:48;;;;;;;6.40;3.03;;;5.40;99.90;;;;;;5128971;28;20465;-85
2021/01/07 12:30:21;;;;;;;5.93;2.63;;;5.50;99.90;;;;;;5129291;28;20274;-85
2021/01/07 12:33:02;;;;;;;3.60;2.40;;;5.50;99.90;;;;;;5129606;28;20470;-85
2021/01/07 12:35:35;;;;;;;4.10;2.40;;;5.50;99.90;;;;;;5128448;28;20436;-85
2021/01/07 12:38:17;;;;;;;9.40;2.70;;;5.60;99.90;;;;;;5128911;28;20232;-86
2021/01/07 12:40:57;;;;;;;9.83;2.40;;;5.40;99.90;;;;;;5129731;28;20441;-85
2021/01/07 12:43:34;;;;;;;6.60;2.20;;;5.30;99.90;;;;;;5118250;28;20410;-85
2021/01/07 12:46:09;;;;;;;3.83;2.10;;;5.20;99.90;;;;;;5115507;28;20453;-85
2021/01/07 12:48:46;;;;;;;3.73;1.80;;;5.30;99.90;;;;;;5098006;28;20524;-85
2021/01/07 12:51:15;;;;;;;7.20;2.43;;;5.40;99.90;;;;;;5114703;28;20477;-86
2021/01/07 12:53:46;;;;;;;4.57;2.30;;;5.50;99.90;;;;;;5115711;28;20426;-85
2021/01/07 12:56:20;;;;;;;5.57;1.83;;;5.40;99.90;;;;;;5115265;28;20503;-85
2021/01/07 12:58:58;;;;;;;4.50;2.10;;;5.60;99.90;;;;;;5115618;28;20492;-85
2021/01/07 13:01:45;;;;;;;3.33;2.40;;;5.70;99.90;;;;;;5114978;28;20447;-85
2021/01/07 13:04:27;;;;;;;7.03;2.20;;;5.70;99.90;;;;;;5098012;28;20426;-85
2021/01/07 13:06:58;;;;;;;5.40;2.00;;;5.70;99.90;;;;;;5115180;28;20476;-86
2021/01/07 13:09:36;;;;;;;10.73;2.53;;;5.40;99.90;;;;;;5115101;28;20454;-85
2021/01/07 13:12:05;;;;;;;5.47;2.10;;;5.30;99.90;;;;;;5114331;28;20575;-85
2021/01/07 13:14:36;;;;;;;7.17;2.67;;;5.20;99.90;;;;;;5114005;28;20524;-85
2021/01/07 13:17:05;;;;;;;5.93;1.90;;;5.10;99.90;;;;;;5113832;28;20507;-85
2021/01/07 13:19:33;;;;;;;13.37;2.20;;;5.20;99.90;;;;;;5114945;28;20417;-85
2021/01/07 13:22:00;;;;;;;3.70;2.17;;;5.10;99.90;;;;;;5114444;28;20467;-85
2021/01/07 13:24:32;;;;;;;10.20;2.80;;;5.00;99.90;;;;;;5113789;28;20453;-86
2021/01/07 13:27:02;;;;;;;8.20;2.30;;;5.10;99.90;;;;;;5114448;28;20462;-86
2021/01/07 13:29:30;;;;;;;5.80;2.57;;;5.00;99.90;;;;;;5114439;28;20463;-85
2021/01/07 13:31:59;;;;;;;5.57;2.10;;;5.00;99.90;;;;;;5097360;28;20474;-85
2021/01/07 13:34:29;;;;;;;4.73;2.37;;;5.00;99.90;;;;;;5115154;28;20426;-85
2021/01/07 13:37:01;;;;;;;4.70;2.50;;;4.90;99.90;;;;;;5114846;28;20449;-85
2021/01/07 13:39:31;;;;;;;5.93;2.40;;;5.10;99.90;;;;;;5114835;28;20443;-85
2021/01/07 13:41:58;;;;;;;3.67;2.53;;;4.90;99.90;;;;;;5096164;28;20434;-85
2021/01/07 13:44:27;;;;;;;4.27;2.60;;;4.80;99.90;;;;;;5114481;28;20792;-85
2021/01/07 13:46:56;;;;;;;3.30;2.07;;;4.90;99.90;;;;;;5113451;28;20477;-85
2021/01/07 13:49:25;;;;;;;2.20;2.00;;;5.00;99.90;;;;;;5114015;28;20528;-85
2021/01/07 13:51:56;;;;;;;5.50;1.70;;;4.90;99.90;;;;;;5113748;28;20523;-85
2021/01/07 13:57:07;;;;;;;4.40;2.27;;;4.70;99.90;;;;;;5086829;28;20542;-83
2021/01/07 13:59:36;;;;;;;2.93;2.00;;;4.70;99.90;;;;;;5093456;28;20477;-85
2021/01/07 14:02:09;;;;;;;3.93;2.50;;;4.60;99.90;;;;;;5094313;28;20470;-85
2021/01/07 14:04:39;;;;;;;2.53;1.83;;;4.40;99.90;;;;;;5094928;28;20416;-85
2021/01/07 14:07:13;;;;;;;2.50;1.87;;;4.40;99.90;;;;;;5213100;22;20455;-84
2021/01/07 14:09:48;;;;;;;3.50;1.63;;;4.20;99.90;;;;;;5071572;28;20478;-85
2021/01/07 14:12:23;;;;;;;2.07;1.63;;;4.10;99.90;;;;;;5054413;28;20544;-85
2021/01/07 14:14:53;;;;;;;1.97;1.77;;;4.00;99.90;;;;;;5055616;28;20458;-85
2021/01/07 14:17:22;;;;;;;2.03;1.83;;;3.90;99.90;;;;;;5072673;28;20472;-85
2021/01/07 14:19:55;;;;;;;3.43;2.13;;;3.90;99.90;;;;;;5072535;28;20450;-85
2021/01/07 14:22:23;;;;;;;7.33;2.43;;;3.90;99.90;;;;;;5072458;28;20451;-84
2021/01/07 14:24:55;;;;;;;2.80;2.23;;;4.00;99.90;;;;;;5072301;28;20447;-84
2021/01/07 14:27:37;;;;;;;3.17;2.07;;;3.90;99.90;;;;;;5072681;28;20471;-85
2021/01/07 14:30:50;;;;;;;3.67;2.97;;;3.90;99.90;;;;;;5219401;22;20489;-85
2021/01/07 14:33:20;;;;;;;3.53;2.50;;;4.10;99.90;;;;;;5094591;28;20450;-85
2021/01/07 14:36:01;;;;;;;3.77;2.77;;;4.20;99.90;;;;;;5093260;28;20446;-85
2021/01/07 14:41:28;;;;;;;4.80;2.50;;;4.20;99.90;;;;;;5097032;28;20498;-85
2021/01/07 14:46:34;;;;;;;3.00;2.80;;;4.10;99.90;;;;;;5494805;22;20498;-85
2021/01/07 15:18:52;;;;;;;4.60;3.93;;;3.60;99.90;;;;;;5537694;22;20494;-85
2021/01/07 15:22:01;;;;;;;3.47;3.13;;;3.60;99.90;;;;;;5088706;22;20444;-86
2021/01/07 15:29:56;;;;;;;3.10;2.07;;;3.30;99.90;;;;;;5071343;28;20491;-85
2021/01/07 15:32:32;;;;;;;2.50;2.30;;;3.30;99.90;;;;;;5074717;28;20483;-85
2021/01/07 15:35:12;;;;;;;2.30;2.20;;;3.20;99.90;;;;;;5073592;28;20423;-85
2021/01/07 15:38:20;;;;;;;2.93;2.67;;;3.20;99.90;;;;;;5082351;28;20458;-85
2021/01/07 15:40:54;;;;;;;2.70;2.50;;;3.10;99.90;;;;;;5092547;28;20443;-85
2021/01/07 15:43:59;;;;;;;3.73;2.43;;;3.10;99.90;;;;;;5093538;28;20437;-85
2021/01/07 15:47:05;;;;;;;2.50;2.30;;;3.10;99.90;;;;;;5092407;28;20466;-85
2021/01/07 15:49:43;;;;;;;5.00;2.90;;;3.00;99.90;;;;;;5075154;28;20442;-85
2021/01/07 15:52:45;;;;;;;4.63;3.00;;;2.90;99.90;;;;;;5092090;28;20500;-85
2021/01/07 15:55:33;;;;;;;5.47;3.53;;;3.10;99.90;;;;;;5092620;28;20472;-85
2021/01/07 15:58:35;;;;;;;6.00;3.53;;;3.10;99.90;;;;;;5092445;28;20498;-85
2021/01/07 16:01:03;;;;;;;5.13;3.43;;;3.20;99.90;;;;;;5075568;28;20438;-84
2021/01/07 16:06:29;;;;;;;6.80;5.00;;;3.20;99.90;;;;;;5151827;22;20225;-84
2021/01/07 16:09:00;;;;;;;5.93;5.40;;;3.30;99.90;;;;;;5063929;22;20424;-83
2021/01/07 16:12:03;;;;;;;4.83;4.10;;;3.50;99.90;;;;;;5138241;22;20550;-84
2021/01/07 16:22:41;;;;;;;5.93;5.43;;;3.30;99.90;;;;;;524654;26;20727;-83
2021/01/07 16:25:22;;;;;;;8.27;5.17;;;3.20;99.90;;;;;;5100321;28;20481;-83
2021/01/07 16:28:06;;;;;;;5.83;5.33;;;3.30;99.90;;;;;;5085650;28;20446;-85
2021/01/07 16:30:36;;;;;;;5.57;5.07;;;3.30;99.90;;;;;;5101871;28;20513;-85
2021/01/07 16:33:16;;;;;;;7.77;5.87;;;3.40;99.90;;;;;;5090553;22;20479;-82
2021/01/07 16:35:46;;;;;;;6.20;4.90;;;3.30;99.90;;;;;;5081611;28;20412;-84
2021/01/07 16:42:01;;;;;;;8.57;6.67;;;3.20;99.90;;;;;;5080380;28;20430;-85
2021/01/07 16:45:17;;;;;;;6.80;6.03;;;3.20;99.90;;;;;;5204232;22;20502;-83
